Time;durP1;ratioP1;P1;durP2;ratioP2;P2;SDS_P1;SDS_P2;PMS_P1;PMS_P2;Temp;Humidity;BMP_temperature;BMP_pressure;BME280_temperature;BME280_humidity;BME280_pressure;Samples;Min_cycle;Max_cycle;Signal;HPM_P1;HPM_P2
2023/01/06 00:02:19;;;;;;;11.80;6.00;;;;;;;9.73;100.00;101651.25;4972556;28;20066;-72
2023/01/06 00:04:44;;;;;;;15.57;5.97;;;;;;;9.71;100.00;101643.34;4975375;28;20030;-71
2023/01/06 00:07:10;;;;;;;11.23;5.47;;;;;;;9.71;100.00;101648.75;4973856;28;20069;-70
2023/01/06 00:09:35;;;;;;;11.88;5.80;;;;;;;9.72;100.00;101653.16;4975020;28;20038;-71
2023/01/06 00:12:02;;;;;;;12.57;5.70;;;;;;;9.70;100.00;101641.69;4974073;28;20042;-69
2023/01/06 00:14:28;;;;;;;9.35;4.97;;;;;;;9.70;100.00;101633.56;4974709;28;20034;-73
2023/01/06 00:16:53;;;;;;;7.80;4.63;;;;;;;9.74;100.00;101632.16;4972603;28;20093;-70
2023/01/06 00:19:18;;;;;;;9.85;4.97;;;;;;;9.72;100.00;101634.22;4974779;28;20106;-71
2023/01/06 00:21:44;;;;;;;9.45;5.10;;;;;;;9.73;100.00;101630.47;4973696;28;20039;-73
2023/01/06 00:24:10;;;;;;;12.13;4.68;;;;;;;9.74;100.00;101631.31;4974677;28;20039;-73
2023/01/06 00:26:36;;;;;;;7.45;4.57;;;;;;;9.75;100.00;101632.97;4972843;28;20038;-72
2023/01/06 00:29:01;;;;;;;9.15;4.05;;;;;;;9.74;100.00;101624.03;4974133;28;20026;-74
2023/01/06 00:31:26;;;;;;;9.60;4.10;;;;;;;9.78;100.00;101619.06;4972556;28;20043;-71
2023/01/06 00:33:55;;;;;;;7.15;3.88;;;;;;;9.79;100.00;101622.59;4973361;28;20050;-71
2023/01/06 00:36:21;;;;;;;6.68;3.33;;;;;;;9.76;100.00;101630.06;4972641;28;20029;-70
2023/01/06 00:38:47;;;;;;;8.63;4.03;;;;;;;9.74;100.00;101621.34;4973828;28;20034;-71
2023/01/06 00:43:58;;;;;;;7.28;3.35;;;;;;;9.76;100.00;101613.03;4973989;28;20061;-71
2023/01/06 00:46:27;;;;;;;8.43;3.78;;;;;;;9.75;100.00;101611.34;4972744;28;20066;-73
2023/01/06 00:48:53;;;;;;;6.53;3.40;;;;;;;9.76;100.00;101615.72;4973047;28;20031;-72
2023/01/06 00:51:18;;;;;;;7.40;3.78;;;;;;;9.76;100.00;101615.72;4974251;28;20034;-72
2023/01/06 00:53:43;;;;;;;9.30;3.80;;;;;;;9.76;100.00;101613.03;4974310;28;20494;-73
2023/01/06 00:56:09;;;;;;;8.77;3.40;;;;;;;9.77;100.00;101617.41;4971186;28;20073;-73
2023/01/06 00:58:34;;;;;;;8.88;3.20;;;;;;;9.82;100.00;101616.81;4974084;28;20047;-73
2023/01/06 01:01:05;;;;;;;7.57;3.40;;;;;;;9.78;100.00;101618.22;4971477;28;20126;-70
2023/01/06 01:03:31;;;;;;;6.95;3.42;;;;;;;9.79;100.00;101622.59;4973885;28;20027;-71
2023/01/06 01:06:04;;;;;;;6.72;3.30;;;;;;;9.77;100.00;101617.41;4972228;28;20109;-73
2023/01/06 01:08:30;;;;;;;6.38;3.25;;;;;;;9.79;100.00;101611.78;4973987;28;20046;-72
2023/01/06 01:11:02;;;;;;;8.50;3.90;;;;;;;9.75;100.00;101606.78;4973585;28;20038;-73
2023/01/06 01:13:27;;;;;;;9.20;3.28;;;;;;;9.76;100.00;101605.75;4973822;28;20061;-73
2023/01/06 01:15:53;;;;;;;8.13;3.17;;;;;;;9.77;100.00;101601.19;4972887;28;20031;-72
2023/01/06 01:18:18;;;;;;;8.90;3.53;;;;;;;9.77;100.00;101609.28;4972420;28;20035;-70
2023/01/06 01:20:46;;;;;;;7.13;3.10;;;;;;;9.76;100.00;101605.75;4973846;28;20031;-71
2023/01/06 01:23:11;;;;;;;9.73;3.35;;;;;;;9.77;100.00;101606.59;4973655;28;20042;-72
2023/01/06 01:25:36;;;;;;;8.85;3.13;;;;;;;9.77;100.00;101601.19;4972554;28;20038;-71
2023/01/06 01:28:02;;;;;;;6.95;3.00;;;;;;;9.76;100.00;101594.09;4971041;28;20382;-71
2023/01/06 01:30:27;;;;;;;7.85;3.05;;;;;;;9.78;100.00;101599.31;4972645;28;20039;-70
2023/01/06 01:32:52;;;;;;;6.43;2.78;;;;;;;9.79;100.00;101601.00;4973484;28;20023;-70
2023/01/06 01:35:18;;;;;;;9.65;3.13;;;;;;;9.80;100.00;101595.38;4973758;28;20043;-73
2023/01/06 01:37:43;;;;;;;7.55;2.60;;;;;;;9.78;100.00;101591.19;4972378;28;20031;-71
2023/01/06 01:40:09;;;;;;;6.65;2.50;;;;;;;9.77;100.00;101593.06;4973190;28;20500;-72
2023/01/06 01:42:34;;;;;;;7.15;2.45;;;;;;;9.79;100.00;101590.19;4973131;28;20035;-70
2023/01/06 01:45:06;;;;;;;8.73;2.70;;;;;;;9.78;100.00;101583.91;4973367;28;20038;-70
2023/01/06 01:47:48;;;;;;;5.20;2.08;;;;;;;9.80;100.00;101578.31;4971168;28;20050;-70
2023/01/06 01:50:24;;;;;;;5.25;2.33;;;;;;;9.81;100.00;101578.09;4971993;28;20042;-71
2023/01/06 01:52:52;;;;;;;8.68;2.13;;;;;;;9.79;100.00;101576.66;4972863;28;20081;-73
2023/01/06 01:55:18;;;;;;;6.00;2.33;;;;;;;9.78;100.00;101562.28;4972488;28;20031;-73
2023/01/06 01:58:07;;;;;;;5.43;2.10;;;;;;;9.83;100.00;101553.56;4972741;28;20045;-73
2023/01/06 02:00:34;;;;;;;6.45;2.13;;;;;;;9.79;100.00;101563.97;4971544;28;20510;-70
2023/01/06 02:03:00;;;;;;;7.15;2.03;;;;;;;9.82;100.00;101562.75;4970885;28;20039;-72
2023/01/06 02:05:26;;;;;;;5.15;1.98;;;;;;;9.80;100.00;101571.06;4972482;28;20031;-70
2023/01/06 02:07:56;;;;;;;4.78;1.95;;;;;;;9.80;100.00;101564.78;4968162;28;20031;-72
2023/01/06 02:10:22;;;;;;;10.20;1.92;;;;;;;9.82;100.00;101568.16;4973462;28;20026;-69
2023/01/06 02:12:52;;;;;;;9.88;2.17;;;;;;;9.80;100.00;101562.09;4971960;28;20039;-73
2023/01/06 02:15:19;;;;;;;6.53;1.75;;;;;;;9.79;100.00;101566.66;4971997;28;20109;-72
2023/01/06 02:18:18;;;;;;;5.57;1.88;;;;;;;9.82;100.00;101570.84;4972440;28;20035;-72
2023/01/06 02:21:10;;;;;;;7.97;2.17;;;;;;;9.82;100.00;101560.84;4972445;28;20074;-72
2023/01/06 02:23:38;;;;;;;6.82;1.73;;;;;;;9.81;100.00;101566.47;4970025;28;20494;-70
2023/01/06 02:26:19;;;;;;;2.80;1.50;;;;;;;9.81;100.00;101561.06;4972424;28;20102;-73
2023/01/06 02:29:03;;;;;;;6.13;1.60;;;;;;;9.82;100.00;101555.44;4972944;28;20386;-69
2023/01/06 02:32:05;;;;;;;6.28;1.90;;;;;;;9.85;100.00;101551.53;4969016;28;20035;-73
2023/01/06 02:34:42;;;;;;;3.47;1.50;;;;;;;9.84;100.00;101536.31;4953999;28;20039;-71
2023/01/06 02:37:21;;;;;;;5.25;1.50;;;;;;;9.85;100.00;101532.59;4953907;28;20031;-74
2023/01/06 02:40:04;;;;;;;6.40;1.60;;;;;;;9.87;100.00;101525.97;4953690;28;20106;-70
2023/01/06 02:42:32;;;;;;;5.47;1.40;;;;;;;9.84;100.00;101526.34;4976757;28;20042;-73
2023/01/06 02:45:18;;;;;;;5.63;1.80;;;;;;;9.86;100.00;101521.56;4976711;28;20487;-72
2023/01/06 02:48:11;;;;;;;5.68;1.50;;;;;;;9.87;100.00;101509.75;4974934;28;20055;-73
2023/01/06 02:51:11;;;;;;;7.03;1.55;;;;;;;9.86;100.00;101501.84;4975009;28;20035;-70
2023/01/06 02:54:07;;;;;;;4.57;1.70;;;;;;;9.89;100.00;101504.94;4969571;28;20061;-69
2023/01/06 02:56:38;;;;;;;7.50;2.08;;;;;;;9.86;100.00;101509.94;4968878;28;20035;-69
2023/01/06 02:59:08;;;;;;;3.83;1.40;;;;;;;9.86;100.00;101501.84;4974219;28;20364;-70
2023/01/06 03:01:37;;;;;;;5.75;1.63;;;;;;;9.87;100.00;101500.78;4972803;28;20370;-71
2023/01/06 03:04:08;;;;;;;8.88;1.88;;;;;;;9.85;100.00;101508.25;4976150;28;20023;-72
2023/01/06 03:06:36;;;;;;;6.97;1.60;;;;;;;9.86;100.00;101502.66;4976470;28;20035;-73
2023/01/06 03:09:04;;;;;;;4.75;1.70;;;;;;;9.87;100.00;101507.03;4975082;28;20089;-71
2023/01/06 03:11:31;;;;;;;6.00;1.90;;;;;;;9.88;100.00;101499.75;4975271;28;20031;-70
2023/01/06 03:14:00;;;;;;;5.18;1.80;;;;;;;9.87;100.00;101501.63;4974962;28;20034;-71
2023/01/06 03:16:25;;;;;;;4.32;1.80;;;;;;;9.89;100.00;101490.59;4975017;28;20448;-72
2023/01/06 03:18:53;;;;;;;6.88;2.08;;;;;;;9.89;100.00;101496.00;4976353;28;20147;-70
2023/01/06 03:21:29;;;;;;;7.15;1.65;;;;;;;9.90;100.00;101486.84;4983536;28;20034;-69
2023/01/06 03:23:54;;;;;;;4.30;1.40;;;;;;;9.90;100.00;101485.00;4984843;28;20037;-70
2023/01/06 03:26:19;;;;;;;4.90;1.60;;;;;;;9.87;100.00;101482.72;4976289;28;20062;-70
2023/01/06 03:28:45;;;;;;;5.18;1.63;;;;;;;9.90;100.00;101479.59;4975856;28;20443;-72
2023/01/06 03:31:14;;;;;;;4.40;1.40;;;;;;;9.91;100.00;101502.03;4974013;28;20085;-73
2023/01/06 03:33:55;;;;;;;5.93;1.77;;;;;;;9.90;100.00;101495.81;4975753;28;20033;-70
2023/01/06 03:36:30;;;;;;;;;;;;;;;9.97;100.00;101492.28;4975969;28;20034;-69
2023/01/06 03:38:55;;;;;;;7.78;1.83;;;;;;;9.89;100.00;101490.59;4975693;28;19910;-70
2023/01/06 03:44:29;;;;;;;5.18;1.50;;;;;;;9.88;100.00;101467.31;4975421;28;20046;-73
2023/01/06 03:47:04;;;;;;;5.75;1.50;;;;;;;9.89;100.00;101477.91;4975625;28;20129;-72
2023/01/06 03:49:34;;;;;;;6.53;1.52;;;;;;;9.91;100.00;101491.22;4974567;28;20039;-69
2023/01/06 03:52:18;;;;;;;5.47;1.80;;;;;;;9.99;100.00;101493.72;4973899;28;20121;-71
2023/01/06 03:55:05;;;;;;;5.00;1.60;;;;;;;9.96;100.00;101483.31;4975186;28;20481;-72
2023/01/06 03:57:35;;;;;;;5.30;1.73;;;;;;;9.96;100.00;101483.31;4975174;28;20019;-69
2023/01/06 04:00:12;;;;;;;5.35;1.70;;;;;;;9.98;100.00;101478.56;4973736;28;20027;-72
2023/01/06 04:02:39;;;;;;;3.33;1.25;;;;;;;9.94;100.00;101474.59;4972929;28;20050;-73
2023/01/06 04:05:16;;;;;;;4.75;1.42;;;;;;;9.99;100.00;101460.47;4975155;28;20031;-70
2023/01/06 04:07:42;;;;;;;6.30;1.73;;;;;;;9.94;100.00;101458.38;4974709;28;20043;-71
2023/01/06 04:10:10;;;;;;;4.53;1.55;;;;;;;9.96;100.00;101463.56;4972522;28;20038;-69
2023/01/06 04:12:38;;;;;;;3.17;1.38;;;;;;;9.96;100.00;101452.75;4974654;28;20079;-70
2023/01/06 04:15:10;;;;;;;6.45;1.80;;;;;;;9.97;100.00;101457.13;4975078;28;20045;-70
2023/01/06 04:17:35;;;;;;;;;;;;;;;10.03;100.00;101445.50;4975529;28;20035;-73
2023/01/06 04:20:01;;;;;;;4.13;1.58;;;;;;;9.96;100.00;101442.75;4973559;28;20376;-70
2023/01/06 04:22:26;;;;;;;1.60;1.20;;;;;;;9.93;100.00;101430.50;4974650;28;20476;-70
2023/01/06 04:24:51;;;;;;;2.15;1.25;;;;;;;9.95;100.00;101433.00;4974863;28;20030;-73
2023/01/06 04:27:17;;;;;;;2.55;1.40;;;;;;;9.96;100.00;101434.66;4974146;28;20026;-70
2023/01/06 04:29:42;;;;;;;5.55;1.13;;;;;;;9.96;100.00;101431.94;4973947;28;20382;-70
2023/01/06 04:32:07;;;;;;;2.83;1.48;;;;;;;9.97;100.00;101432.81;4973871;28;20114;-72
2023/01/06 04:34:33;;;;;;;3.65;1.20;;;;;;;9.95;100.00;101416.78;4974798;28;20487;-73
2023/01/06 04:36:58;;;;;;;4.45;1.73;;;;;;;9.99;100.00;101425.31;4974636;28;20478;-72
2023/01/06 04:39:23;;;;;;;3.92;1.50;;;;;;;9.98;100.00;101410.13;4973229;28;20082;-71
2023/01/06 04:41:49;;;;;;;4.82;1.25;;;;;;;9.99;100.00;101396.38;4973471;28;20031;-72
2023/01/06 04:44:14;;;;;;;3.25;1.50;;;;;;;9.99;100.00;101404.50;4974317;28;20081;-69
2023/01/06 04:46:39;;;;;;;2.40;1.10;;;;;;;9.97;100.00;101398.47;4974495;28;20097;-71
2023/01/06 04:49:05;;;;;;;5.07;1.15;;;;;;;9.97;100.00;101403.88;4974353;28;20501;-70
2023/01/06 04:51:30;;;;;;;3.10;1.20;;;;;;;9.98;100.00;101394.75;4971341;28;20027;-71
2023/01/06 04:53:55;;;;;;;3.35;1.20;;;;;;;9.97;100.00;101386.84;4973394;28;20045;-71
2023/01/06 04:56:20;;;;;;;2.70;1.20;;;;;;;9.98;100.00;101402.84;4974084;28;20027;-70
2023/01/06 04:58:46;;;;;;;3.88;1.20;;;;;;;9.97;100.00;101398.47;4974193;28;20041;-69
2023/01/06 05:01:12;;;;;;;2.75;1.02;;;;;;;9.99;100.00;101390.97;4970075;28;20073;-70
2023/01/06 05:03:38;;;;;;;4.07;1.27;;;;;;;9.98;100.00;101392.03;4973247;28;20522;-71
2023/01/06 05:06:10;;;;;;;4.72;1.20;;;;;;;9.98;100.00;101383.06;4974190;28;20162;-71
2023/01/06 05:08:36;;;;;;;;;;;;;;;10.05;100.00;101395.56;4974259;28;20442;-71
2023/01/06 05:11:05;;;;;;;3.42;1.00;;;;;;;10.00;100.00;101383.72;4972563;28;19956;-72
2023/01/06 05:13:31;;;;;;;4.05;1.20;;;;;;;9.99;100.00;101377.47;4973784;28;20035;-72
2023/01/06 05:15:56;;;;;;;3.10;1.40;;;;;;;9.99;100.00;101380.16;4973986;28;20501;-72
2023/01/06 05:18:22;;;;;;;3.90;1.17;;;;;;;9.99;100.00;101373.94;4973733;28;20035;-73
2023/01/06 05:20:52;;;;;;;4.65;1.20;;;;;;;9.98;100.00;101389.34;4972389;28;20066;-73
2023/01/06 05:23:17;;;;;;;4.22;1.30;;;;;;;9.96;100.00;101380.59;4973650;28;20038;-74
2023/01/06 05:25:43;;;;;;;1.95;1.08;;;;;;;9.94;100.00;101379.97;4974091;28;20034;-72
2023/01/06 05:28:08;;;;;;;4.88;1.20;;;;;;;9.97;100.00;101386.84;4974119;28;20038;-70
2023/01/06 05:30:33;;;;;;;2.72;1.00;;;;;;;9.96;100.00;101377.88;4971809;28;20031;-71
2023/01/06 05:32:59;;;;;;;5.25;1.75;;;;;;;9.95;100.00;101384.34;4973380;28;20047;-72
2023/01/06 05:35:24;;;;;;;3.13;1.00;;;;;;;9.93;100.00;101397.22;4973828;28;20035;-70
2023/01/06 05:37:52;;;;;;;2.67;1.08;;;;;;;9.93;100.00;101398.06;4973479;28;20029;-70
2023/01/06 05:40:17;;;;;;;3.50;1.20;;;;;;;9.93;100.00;101398.06;4971709;28;20054;-69
2023/01/06 05:42:43;;;;;;;4.03;1.17;;;;;;;9.95;100.00;101395.16;4973927;28;20035;-70
2023/01/06 05:45:09;;;;;;;3.13;1.00;;;;;;;9.96;100.00;101390.56;4972252;28;20528;-69
2023/01/06 05:47:37;;;;;;;3.38;1.20;;;;;;;9.94;100.00;101398.91;4973528;28;20487;-75
2023/01/06 05:50:03;;;;;;;5.53;0.93;;;;;;;9.97;100.00;101398.47;4968939;28;20384;-72
2023/01/06 05:52:29;;;;;;;2.15;1.00;;;;;;;9.96;100.00;101399.50;4972641;28;20041;-72
2023/01/06 05:54:54;;;;;;;1.85;0.90;;;;;;;9.93;100.00;101398.06;4973620;28;20069;-71
2023/01/06 05:57:22;;;;;;;3.60;1.13;;;;;;;9.97;100.00;101392.25;4973646;28;20035;-76
2023/01/06 05:59:47;;;;;;;3.50;1.20;;;;;;;9.97;100.00;101400.34;4970456;28;20058;-74
2023/01/06 06:02:12;;;;;;;1.95;1.25;;;;;;;9.96;100.00;101396.81;4969172;28;20054;-72
2023/01/06 06:04:38;;;;;;;3.38;1.20;;;;;;;9.98;100.00;101399.31;4972945;28;20019;-73
2023/01/06 06:07:03;;;;;;;2.70;1.05;;;;;;;9.97;100.00;101382.25;4972790;28;20045;-71
2023/01/06 06:09:28;;;;;;;3.08;1.10;;;;;;;9.97;100.00;101393.06;4972921;28;20031;-73
2023/01/06 06:11:54;;;;;;;2.58;0.93;;;;;;;9.96;100.00;101386.00;4971788;28;20390;-70
2023/01/06 06:14:19;;;;;;;3.13;0.93;;;;;;;9.96;100.00;101388.69;4973017;28;20077;-72
2023/01/06 06:16:45;;;;;;;7.10;1.20;;;;;;;9.96;100.00;101388.69;4975943;28;20034;-71
2023/01/06 06:19:11;;;;;;;4.55;1.40;;;;;;;9.96;100.00;101394.09;4975893;28;20031;-70
2023/01/06 06:21:37;;;;;;;2.75;1.20;;;;;;;9.96;100.00;101390.56;4975138;28;20050;-72
2023/01/06 06:24:02;;;;;;;2.60;1.33;;;;;;;9.97;100.00;101398.47;4977146;28;20027;-72
2023/01/06 06:26:28;;;;;;;2.13;0.95;;;;;;;9.98;100.00;101399.31;4976597;28;20089;-74
2023/01/06 06:28:53;;;;;;;2.65;1.10;;;;;;;9.98;100.00;101399.31;4976987;28;20061;-70
2023/01/06 06:31:22;;;;;;;2.10;1.20;;;;;;;9.98;100.00;101393.91;4975261;28;20042;-71
2023/01/06 06:33:52;;;;;;;4.57;1.13;;;;;;;9.98;100.00;101394.75;4976876;28;20038;-73
2023/01/06 06:36:17;;;;;;;3.92;1.17;;;;;;;9.99;100.00;101396.38;4976646;28;20034;-71
2023/01/06 06:38:44;;;;;;;3.00;1.15;;;;;;;9.98;100.00;101394.75;4976205;28;20387;-72
2023/01/06 06:41:10;;;;;;;2.45;1.10;;;;;;;9.99;100.00;101396.38;4976124;28;20031;-72
2023/01/06 06:43:35;;;;;;;2.78;1.33;;;;;;;9.99;100.00;101388.28;4976580;28;20538;-71
2023/01/06 06:46:01;;;;;;;2.78;1.30;;;;;;;9.97;100.00;101398.47;4976261;28;20054;-71
2023/01/06 06:48:30;;;;;;;2.53;1.15;;;;;;;9.95;100.00;101389.75;4975951;28;20034;-71
2023/01/06 06:50:59;;;;;;;2.97;1.70;;;;;;;9.93;100.00;101398.06;4975795;28;20057;-69
2023/01/06 06:53:25;;;;;;;2.85;1.45;;;;;;;9.91;100.00;101393.91;4976048;28;20027;-70
2023/01/06 06:55:50;;;;;;;3.10;1.60;;;;;;;9.88;100.00;101394.31;4976300;28;20030;-71
2023/01/06 06:58:16;;;;;;;4.32;1.48;;;;;;;9.87;100.00;101400.75;4975598;28;20026;-72
2023/01/06 07:00:41;;;;;;;2.33;1.30;;;;;;;9.85;100.00;101394.72;4972337;28;20026;-74
2023/01/06 07:03:06;;;;;;;2.95;1.42;;;;;;;9.82;100.00;101400.56;4976583;28;20363;-72
2023/01/06 07:05:31;;;;;;;2.75;1.58;;;;;;;9.82;100.00;101412.19;4976354;28;20034;-72
2023/01/06 07:07:57;;;;;;;8.40;1.77;;;;;;;9.80;100.00;101408.00;4975749;28;20082;-69
2023/01/06 07:10:22;;;;;;;4.03;1.50;;;;;;;9.75;100.00;101414.91;4975222;28;20034;-71
2023/01/06 07:12:47;;;;;;;3.53;1.38;;;;;;;9.72;100.00;101426.13;4975523;28;20034;-72
2023/01/06 07:15:13;;;;;;;7.70;1.70;;;;;;;9.70;100.00;101425.47;4977402;28;20037;-71
2023/01/06 07:17:40;;;;;;;4.75;1.75;;;;;;;9.69;100.00;101415.72;4979347;28;20031;-71
2023/01/06 07:20:06;;;;;;;3.15;1.50;;;;;;;9.64;100.00;101420.88;4970657;28;20042;-71
2023/01/06 07:22:31;;;;;;;3.17;1.63;;;;;;;9.60;100.00;101414.22;4975436;28;20455;-71
2023/01/06 07:24:57;;;;;;;3.28;1.70;;;;;;;9.60;100.00;101408.00;4974703;28;20034;-72
2023/01/06 07:27:22;;;;;;;2.78;1.70;;;;;;;9.60;100.00;101418.81;4973229;28;20090;-73
2023/01/06 07:29:47;;;;;;;4.25;1.80;;;;;;;9.60;100.00;101408.81;4974615;28;20109;-73
2023/01/06 07:32:12;;;;;;;5.47;1.98;;;;;;;9.57;100.00;101415.47;4974956;28;20073;-74
2023/01/06 07:34:38;;;;;;;1.70;1.60;;;;;;;9.60;100.00;101403.41;4971417;28;20035;-73
2023/01/06 07:37:03;;;;;;;2.97;1.83;;;;;;;9.54;100.00;101404.22;4963531;28;20118;-73
2023/01/06 07:39:28;;;;;;;4.57;1.75;;;;;;;9.53;100.00;101402.59;4966227;28;20446;-73
2023/01/06 07:41:54;;;;;;;3.65;1.83;;;;;;;9.54;100.00;101415.03;4974644;28;20038;-70
2023/01/06 07:44:19;;;;;;;3.38;1.70;;;;;;;9.50;100.00;101419.22;4974369;28;20398;-74
2023/01/06 07:46:44;;;;;;;3.72;1.90;;;;;;;9.53;100.00;101425.03;4975440;28;20430;-72
2023/01/06 07:49:09;;;;;;;4.90;1.90;;;;;;;9.55;100.00;101424.81;4974664;28;20042;-72
2023/01/06 07:51:35;;;;;;;3.45;1.77;;;;;;;9.53;100.00;101433.13;4974490;28;20027;-72
2023/01/06 07:54:00;;;;;;;2.85;1.70;;;;;;;9.55;100.00;101438.31;4975178;28;20034;-71
2023/01/06 07:56:26;;;;;;;3.45;1.63;;;;;;;9.56;100.00;101440.81;4975165;28;20391;-72
2023/01/06 07:58:53;;;;;;;3.03;1.70;;;;;;;9.62;100.00;101454.53;4974059;28;20089;-72
2023/01/06 08:01:19;;;;;;;5.15;1.65;;;;;;;9.64;100.00;101456.03;4971815;28;20034;-71
2023/01/06 08:03:44;;;;;;;2.03;1.80;;;;;;;9.63;100.00;101450.81;4974439;28;20038;-71
2023/01/06 08:06:10;;;;;;;2.47;1.42;;;;;;;9.67;100.00;101458.31;4975181;28;20478;-72
2023/01/06 08:08:37;;;;;;;3.08;1.80;;;;;;;9.65;100.00;101448.75;4973460;28;20474;-71
2023/01/06 08:11:03;;;;;;;3.15;1.77;;;;;;;9.70;100.00;101457.91;4974376;28;20107;-73
2023/01/06 08:13:29;;;;;;;2.08;1.50;;;;;;;9.70;100.00;101451.66;4974880;28;20035;-71
2023/01/06 08:15:54;;;;;;;1.77;1.42;;;;;;;9.72;100.00;101466.66;4975101;28;20033;-71
2023/01/06 08:18:19;;;;;;;1.60;1.50;;;;;;;9.72;100.00;101466.66;4974495;28;20035;-73
2023/01/06 08:20:44;;;;;;;3.47;1.65;;;;;;;9.74;100.00;101467.28;4973786;28;20023;-74
2023/01/06 08:23:10;;;;;;;2.80;1.83;;;;;;;9.75;100.00;101468.94;4974936;28;20039;-71
2023/01/06 08:25:35;;;;;;;2.45;1.80;;;;;;;9.79;100.00;101473.94;4974641;28;20027;-74
2023/01/06 08:28:01;;;;;;;2.65;1.83;;;;;;;9.79;100.00;101485.59;4974027;28;20026;-72
2023/01/06 08:30:27;;;;;;;3.45;1.88;;;;;;;9.79;100.00;101482.88;4973680;28;20049;-71
2023/01/06 08:32:56;;;;;;;2.75;1.75;;;;;;;9.80;100.00;101479.16;4974023;28;20109;-73
2023/01/06 08:35:21;;;;;;;2.00;1.63;;;;;;;9.82;100.00;101476.25;4974706;28;20031;-71
2023/01/06 08:37:47;;;;;;;2.00;1.67;;;;;;;9.85;100.00;101481.22;4973835;28;20039;-73
2023/01/06 08:40:12;;;;;;;2.05;1.70;;;;;;;9.83;100.00;101475.19;4973272;28;20110;-74
2023/01/06 08:42:37;;;;;;;2.83;1.88;;;;;;;9.87;100.00;101495.38;4974103;28;20379;-72
2023/01/06 08:45:03;;;;;;;2.10;1.90;;;;;;;9.87;100.00;101498.06;4974759;28;20106;-72
2023/01/06 08:47:28;;;;;;;3.63;2.00;;;;;;;9.87;100.00;101506.19;4971762;28;20509;-73
2023/01/06 08:49:53;;;;;;;4.28;1.90;;;;;;;9.85;100.00;101516.38;4972954;28;20059;-72
2023/01/06 08:52:19;;;;;;;2.58;1.83;;;;;;;9.87;100.00;101511.59;4971346;28;20115;-73
2023/01/06 08:54:44;;;;;;;2.65;2.17;;;;;;;9.90;100.00;101519.28;4973771;28;20081;-71
2023/01/06 08:57:10;;;;;;;3.05;1.98;;;;;;;9.90;100.00;101516.59;4973633;28;20478;-74
2023/01/06 08:59:35;;;;;;;2.85;2.60;;;;;;;9.91;100.00;101523.66;4973087;28;20105;-71
2023/01/06 09:02:00;;;;;;;2.78;2.47;;;;;;;9.90;100.00;101522.00;4971268;28;20027;-73
2023/01/06 09:04:26;;;;;;;5.25;2.42;;;;;;;9.93;100.00;101527.84;4973167;28;20114;-70
2023/01/06 09:06:51;;;;;;;2.50;2.30;;;;;;;9.93;100.00;101533.25;4974179;28;20029;-72
2023/01/06 09:09:16;;;;;;;2.67;2.47;;;;;;;9.94;100.00;101534.06;4972035;28;20514;-73
2023/01/06 09:11:43;;;;;;;3.00;2.70;;;;;;;9.97;100.00;101539.06;4973822;28;20031;-73
2023/01/06 09:14:09;;;;;;;3.55;3.25;;;;;;;9.98;100.00;101535.34;4973571;28;20038;-71
2023/01/06 09:16:35;;;;;;;5.28;3.50;;;;;;;10.01;100.00;101542.19;4973801;28;20035;-74
2023/01/06 09:19:00;;;;;;;3.53;3.22;;;;;;;10.05;100.00;101540.75;4972621;28;20080;-70
2023/01/06 09:21:25;;;;;;;4.78;3.17;;;;;;;10.04;100.00;101548.03;4973710;28;20363;-73
2023/01/06 09:23:51;;;;;;;3.92;3.63;;;;;;;10.06;100.00;101545.94;4973336;28;20055;-72
2023/01/06 09:26:17;;;;;;;10.55;3.67;;;;;;;10.08;100.00;101554.72;4974242;28;20455;-74
2023/01/06 09:28:43;;;;;;;4.13;3.67;;;;;;;10.09;100.00;101556.38;4972713;28;20031;-70
2023/01/06 09:31:09;;;;;;;6.53;3.55;;;;;;;10.11;100.00;101567.81;4973771;28;20062;-69
2023/01/06 09:33:35;;;;;;;3.78;3.47;;;;;;;10.10;100.00;101560.75;4972882;28;20034;-71
2023/01/06 09:36:00;;;;;;;6.28;3.47;;;;;;;10.14;100.00;101574.69;4973241;28;20598;-72
2023/01/06 09:38:27;;;;;;;4.55;3.20;;;;;;;10.15;100.00;101578.22;4973086;28;20463;-72
2023/01/06 09:40:52;;;;;;;5.20;3.00;;;;;;;10.14;100.00;101579.25;4974025;28;20086;-71
2023/01/06 09:43:20;;;;;;;4.05;3.35;;;;;;;10.14;100.00;101579.25;4973320;28;20034;-72
2023/01/06 09:45:51;;;;;;;5.55;3.33;;;;;;;10.17;100.00;101589.66;4971950;28;20061;-70
2023/01/06 09:48:24;;;;;;;6.07;3.45;;;;;;;10.18;100.00;101580.53;4971840;28;20059;-73
2023/01/06 09:50:54;;;;;;;5.35;3.35;;;;;;;10.19;100.00;101580.31;4974780;28;20537;-74
2023/01/06 09:53:30;;;;;;;5.25;3.08;;;;;;;10.25;100.00;101589.47;4977174;28;20038;-71
2023/01/06 09:56:00;;;;;;;6.40;3.47;;;;;;;10.27;100.00;101600.94;4977708;28;20033;-73
2023/01/06 09:58:34;;;;;;;5.07;3.63;;;;;;;10.34;100.00;101609.09;4976653;28;20035;-73
2023/01/06 10:01:05;;;;;;;5.38;4.00;;;;;;;10.32;100.00;101606.56;4974990;28;20035;-74
2023/01/06 10:03:31;;;;;;;6.13;4.13;;;;;;;10.34;100.00;101598.25;4970144;28;20080;-72
2023/01/06 10:06:29;;;;;;;10.45;4.53;;;;;;;10.40;100.00;101605.56;4977371;28;20064;-73
2023/01/06 10:09:16;;;;;;;4.90;3.70;;;;;;;10.37;100.00;101606.81;4974937;28;20093;-80
2023/01/06 10:12:22;;;;;;;6.88;4.43;;;;;;;10.35;100.00;101606.19;4976090;28;20122;-73
2023/01/06 10:15:14;;;;;;;8.32;4.20;;;;;;;10.44;100.00;101604.13;4938413;29;20086;-72
2023/01/06 10:17:58;;;;;;;;;;;;;;;10.40;100.00;101603.72;4957808;28;20154;-71
2023/01/06 10:20:38;;;;;;;7.13;3.65;;;;;;;10.29;100.00;101607.78;4971326;28;20397;-70
2023/01/06 10:23:30;;;;;;;7.38;3.90;;;;;;;10.30;100.00;101608.66;4966264;28;20497;-69
2023/01/06 10:26:26;;;;;;;10.60;3.80;;;;;;;10.28;100.00;101610.69;4976148;28;20494;-69
2023/01/06 10:28:55;;;;;;;3.80;3.40;;;;;;;10.26;100.00;101604.66;4976683;28;20627;-70
2023/01/06 10:31:26;;;;;;;7.47;3.60;;;;;;;10.24;100.00;101610.28;4975202;28;20042;-75
2023/01/06 10:33:54;;;;;;;5.20;3.28;;;;;;;10.24;100.00;101614.88;4973541;28;20034;-73
2023/01/06 10:36:47;;;;;;;6.25;3.40;;;;;;;10.27;100.00;101604.47;4976577;28;20455;-73
2023/01/06 10:39:16;;;;;;;5.60;3.55;;;;;;;10.25;100.00;101605.69;4975824;28;20047;-73
2023/01/06 10:41:52;;;;;;;4.45;3.08;;;;;;;10.28;100.00;101603.44;4974935;28;20436;-72
2023/01/06 10:44:18;;;;;;;7.97;3.60;;;;;;;10.30;100.00;101605.94;4972373;28;20034;-70
2023/01/06 10:46:46;;;;;;;9.55;4.13;;;;;;;10.37;100.00;101603.25;4974750;28;20066;-71
2023/01/06 10:49:17;;;;;;;5.28;4.50;;;;;;;10.38;100.00;101603.06;4975270;28;20030;-71
2023/01/06 10:51:50;;;;;;;8.37;4.80;;;;;;;10.38;100.00;101602.25;4975604;28;20027;-77
2023/01/06 10:54:21;;;;;;;7.32;5.53;;;;;;;10.39;100.00;101601.22;4975921;28;20262;-71
2023/01/06 10:56:51;;;;;;;7.47;5.10;;;;;;;10.36;100.00;101597.03;4974119;28;20027;-73
2023/01/06 10:59:17;;;;;;;6.32;5.32;;;;;;;10.41;100.00;101602.66;4976198;28;20445;-73
2023/01/06 11:01:49;;;;;;;7.90;5.95;;;;;;;10.34;100.00;101609.94;4970592;28;20031;-71
2023/01/06 11:04:17;;;;;;;10.95;5.72;;;;;;;10.37;100.00;101604.13;4974939;28;20386;-75
2023/01/06 11:07:00;;;;;;;7.90;6.18;;;;;;;10.37;100.00;101609.53;4974614;28;20031;-72
2023/01/06 11:09:38;;;;;;;8.32;6.18;;;;;;;10.28;100.00;101610.69;4974422;28;20030;-73
2023/01/06 11:12:27;;;;;;;9.48;6.93;;;;;;;10.30;100.00;101608.66;4957443;28;20031;-72
2023/01/06 11:15:02;;;;;;;10.02;7.00;;;;;;;10.29;100.00;101606.97;4976271;28;20034;-72
2023/01/06 11:17:28;;;;;;;11.65;7.20;;;;;;;10.31;100.00;101607.63;4975617;28;20034;-68
2023/01/06 11:20:27;;;;;;;11.80;7.20;;;;;;;10.37;100.00;101605.97;4976300;28;20624;-72
2023/01/06 11:22:52;;;;;;;9.73;7.13;;;;;;;10.36;100.00;101602.44;4974841;28;20031;-71
2023/01/06 11:25:20;;;;;;;8.75;6.70;;;;;;;10.39;100.00;101599.31;4975150;28;20041;-72
2023/01/06 11:27:47;;;;;;;8.73;6.22;;;;;;;10.40;100.00;101608.25;4974444;28;20054;-70
2023/01/06 11:30:41;;;;;;;11.57;5.95;;;;;;;10.42;100.00;101601.63;4975692;28;20030;-72
2023/01/06 11:33:16;;;;;;;7.50;4.40;;;;;;;10.41;100.00;101604.53;4973528;28;20070;-72
2023/01/06 11:35:42;;;;;;;8.15;4.45;;;;;;;10.36;100.00;101612.44;4973680;28;20109;-70
2023/01/06 11:38:12;;;;;;;7.28;3.72;;;;;;;10.35;100.00;101605.34;4967298;28;20540;-73
2023/01/06 11:40:38;;;;;;;10.63;4.07;;;;;;;10.31;100.00;101602.22;4956443;28;20034;-74